sensor_id;sensor_type;location;lat;lon;timestamp;temperature;humidity
71801;HTU21D;59647;55.838;37.292;2022-08-30T00:00:16;21.35;95.88
71801;HTU21D;59647;55.838;37.292;2022-08-30T00:03:01;21.30;94.97
71801;HTU21D;59647;55.838;37.292;2022-08-30T00:05:29;21.29;91.21
71801;HTU21D;59647;55.838;37.292;2022-08-30T00:07:56;21.31;90.60
71801;HTU21D;59647;55.838;37.292;2022-08-30T00:10:22;21.31;90.24
71801;HTU21D;59647;55.838;37.292;2022-08-30T00:12:49;21.31;90.10
71801;HTU21D;59647;55.838;37.292;2022-08-30T00:15:15;21.30;90.38
71801;HTU21D;59647;55.838;37.292;2022-08-30T00:17:41;21.29;90.66
71801;HTU21D;59647;55.838;37.292;2022-08-30T00:20:11;21.28;91.05
71801;HTU21D;59647;55.838;37.292;2022-08-30T00:22:37;21.28;89.94
71801;HTU21D;59647;55.838;37.292;2022-08-30T00:25:03;21.22;93.58
71801;HTU21D;59647;55.838;37.292;2022-08-30T00:27:30;21.16;92.76
71801;HTU21D;59647;55.838;37.292;2022-08-30T00:29:56;21.15;91.31
71801;HTU21D;59647;55.838;37.292;2022-08-30T00:32:22;21.16;91.14
71801;HTU21D;59647;55.838;37.292;2022-08-30T00:34:53;21.13;91.74
71801;HTU21D;59647;55.838;37.292;2022-08-30T00:37:19;21.14;91.15
71801;HTU21D;59647;55.838;37.292;2022-08-30T00:39:46;21.13;90.61
71801;HTU21D;59647;55.838;37.292;2022-08-30T00:42:13;21.13;90.98
71801;HTU21D;59647;55.838;37.292;2022-08-30T00:44:40;21.11;90.37
71801;HTU21D;59647;55.838;37.292;2022-08-30T00:47:06;21.10;90.57
71801;HTU21D;59647;55.838;37.292;2022-08-30T00:49:33;21.08;91.08
71801;HTU21D;59647;55.838;37.292;2022-08-30T00:52:00;21.10;91.08
71801;HTU21D;59647;55.838;37.292;2022-08-30T00:54:27;21.11;90.21
71801;HTU21D;59647;55.838;37.292;2022-08-30T00:56:54;21.10;90.50
71801;HTU21D;59647;55.838;37.292;2022-08-30T00:59:20;21.10;89.79
71801;HTU21D;59647;55.838;37.292;2022-08-30T01:01:49;21.09;90.02
71801;HTU21D;59647;55.838;37.292;2022-08-30T01:04:15;21.08;90.37
71801;HTU21D;59647;55.838;37.292;2022-08-30T01:06:44;21.05;90.18
71801;HTU21D;59647;55.838;37.292;2022-08-30T01:09:11;21.02;90.44
71801;HTU21D;59647;55.838;37.292;2022-08-30T01:11:38;20.96;91.26
71801;HTU21D;59647;55.838;37.292;2022-08-30T01:14:07;20.95;90.73
71801;HTU21D;59647;55.838;37.292;2022-08-30T01:16:34;20.93;90.66
71801;HTU21D;59647;55.838;37.292;2022-08-30T01:19:01;20.93;91.15
71801;HTU21D;59647;55.838;37.292;2022-08-30T01:23:57;20.89;91.52
71801;HTU21D;59647;55.838;37.292;2022-08-30T01:26:25;20.87;93.50
71801;HTU21D;59647;55.838;37.292;2022-08-30T01:28:56;20.88;93.06
71801;HTU21D;59647;55.838;37.292;2022-08-30T01:31:26;20.87;92.05
71801;HTU21D;59647;55.838;37.292;2022-08-30T01:33:51;20.88;91.00
71801;HTU21D;59647;55.838;37.292;2022-08-30T01:36:18;20.84;92.32
71801;HTU21D;59647;55.838;37.292;2022-08-30T01:38:53;20.76;94.18
71801;HTU21D;59647;55.838;37.292;2022-08-30T01:41:25;20.74;93.77
71801;HTU21D;59647;55.838;37.292;2022-08-30T01:43:54;20.69;91.97
71801;HTU21D;59647;55.838;37.292;2022-08-30T01:46:22;20.65;92.81
71801;HTU21D;59647;55.838;37.292;2022-08-30T01:48:49;20.61;92.32
71801;HTU21D;59647;55.838;37.292;2022-08-30T01:51:16;20.57;92.84
71801;HTU21D;59647;55.838;37.292;2022-08-30T01:53:44;20.51;93.14
71801;HTU21D;59647;55.838;37.292;2022-08-30T01:56:10;20.50;92.77
71801;HTU21D;59647;55.838;37.292;2022-08-30T01:58:38;20.45;93.14
71801;HTU21D;59647;55.838;37.292;2022-08-30T02:01:06;20.41;93.43
71801;HTU21D;59647;55.838;37.292;2022-08-30T02:03:33;20.39;93.52
71801;HTU21D;59647;55.838;37.292;2022-08-30T02:06:08;20.34;94.81
71801;HTU21D;59647;55.838;37.292;2022-08-30T02:08:36;20.31;94.56
71801;HTU21D;59647;55.838;37.292;2022-08-30T02:11:03;20.26;93.40
71801;HTU21D;59647;55.838;37.292;2022-08-30T02:13:32;20.24;94.43
71801;HTU21D;59647;55.838;37.292;2022-08-30T02:15:58;20.21;94.06
71801;HTU21D;59647;55.838;37.292;2022-08-30T02:18:25;20.20;93.08
71801;HTU21D;59647;55.838;37.292;2022-08-30T02:20:51;20.17;93.73
71801;HTU21D;59647;55.838;37.292;2022-08-30T02:23:17;20.16;93.37
71801;HTU21D;59647;55.838;37.292;2022-08-30T02:25:44;20.12;94.71
71801;HTU21D;59647;55.838;37.292;2022-08-30T02:28:10;20.10;94.45
71801;HTU21D;59647;55.838;37.292;2022-08-30T02:30:38;20.09;94.72
71801;HTU21D;59647;55.838;37.292;2022-08-30T02:33:04;20.06;94.56
71801;HTU21D;59647;55.838;37.292;2022-08-30T02:35:30;20.03;94.63
71801;HTU21D;59647;55.838;37.292;2022-08-30T02:37:56;20.01;95.76
71801;HTU21D;59647;55.838;37.292;2022-08-30T02:40:22;20.01;95.09
71801;HTU21D;59647;55.838;37.292;2022-08-30T02:42:48;19.99;94.26
71801;HTU21D;59647;55.838;37.292;2022-08-30T02:45:14;19.97;95.46
71801;HTU21D;59647;55.838;37.292;2022-08-30T02:47:41;19.92;96.28
71801;HTU21D;59647;55.838;37.292;2022-08-30T02:50:08;19.94;94.65
71801;HTU21D;59647;55.838;37.292;2022-08-30T02:52:35;19.92;95.84
71801;HTU21D;59647;55.838;37.292;2022-08-30T02:55:03;19.92;96.15
71801;HTU21D;59647;55.838;37.292;2022-08-30T02:57:29;19.90;95.51
71801;HTU21D;59647;55.838;37.292;2022-08-30T02:59:55;19.89;96.06
71801;HTU21D;59647;55.838;37.292;2022-08-30T03:02:21;19.86;96.43
71801;HTU21D;59647;55.838;37.292;2022-08-30T03:04:47;19.92;97.13
71801;HTU21D;59647;55.838;37.292;2022-08-30T03:07:13;19.91;96.30
71801;HTU21D;59647;55.838;37.292;2022-08-30T03:09:39;19.96;96.55
71801;HTU21D;59647;55.838;37.292;2022-08-30T03:12:06;20.00;95.93
71801;HTU21D;59647;55.838;37.292;2022-08-30T03:14:34;20.07;95.89
71801;HTU21D;59647;55.838;37.292;2022-08-30T03:17:01;20.13;96.23
71801;HTU21D;59647;55.838;37.292;2022-08-30T03:19:27;20.18;95.64
71801;HTU21D;59647;55.838;37.292;2022-08-30T03:21:53;20.26;95.54
71801;HTU21D;59647;55.838;37.292;2022-08-30T03:24:19;20.29;95.74
71801;HTU21D;59647;55.838;37.292;2022-08-30T03:26:45;20.36;94.96
71801;HTU21D;59647;55.838;37.292;2022-08-30T03:29:11;20.41;95.07
71801;HTU21D;59647;55.838;37.292;2022-08-30T03:31:37;20.46;94.51
71801;HTU21D;59647;55.838;37.292;2022-08-30T03:34:03;20.48;94.22
71801;HTU21D;59647;55.838;37.292;2022-08-30T03:36:31;20.50;94.94
71801;HTU21D;59647;55.838;37.292;2022-08-30T03:38:56;20.54;94.33
71801;HTU21D;59647;55.838;37.292;2022-08-30T03:41:23;20.53;94.61
71801;HTU21D;59647;55.838;37.292;2022-08-30T03:43:49;20.51;96.33
71801;HTU21D;59647;55.838;37.292;2022-08-30T03:46:15;20.48;95.62
71801;HTU21D;59647;55.838;37.292;2022-08-30T03:48:41;20.51;95.54
71801;HTU21D;59647;55.838;37.292;2022-08-30T03:51:07;20.56;94.35
71801;HTU21D;59647;55.838;37.292;2022-08-30T03:53:33;20.59;96.44
71801;HTU21D;59647;55.838;37.292;2022-08-30T03:55:59;20.59;94.91
71801;HTU21D;59647;55.838;37.292;2022-08-30T03:58:24;20.64;94.91
71801;HTU21D;59647;55.838;37.292;2022-08-30T04:00:50;20.69;94.61
71801;HTU21D;59647;55.838;37.292;2022-08-30T04:03:16;20.74;94.22
71801;HTU21D;59647;55.838;37.292;2022-08-30T04:05:43;20.71;101.53
71801;HTU21D;59647;55.838;37.292;2022-08-30T04:08:09;20.64;97.90
71801;HTU21D;59647;55.838;37.292;2022-08-30T04:10:35;20.63;96.29
71801;HTU21D;59647;55.838;37.292;2022-08-30T04:13:01;20.69;97.40
71801;HTU21D;59647;55.838;37.292;2022-08-30T04:15:27;20.66;98.61
71801;HTU21D;59647;55.838;37.292;2022-08-30T04:17:53;20.72;97.84
71801;HTU21D;59647;55.838;37.292;2022-08-30T04:20:19;20.81;98.44
71801;HTU21D;59647;55.838;37.292;2022-08-30T04:22:45;20.85;98.35
71801;HTU21D;59647;55.838;37.292;2022-08-30T04:25:12;20.92;98.27
71801;HTU21D;59647;55.838;37.292;2022-08-30T04:27:38;20.98;96.91
71801;HTU21D;59647;55.838;37.292;2022-08-30T04:30:04;21.05;96.36
71801;HTU21D;59647;55.838;37.292;2022-08-30T04:32:33;21.14;95.39
71801;HTU21D;59647;55.838;37.292;2022-08-30T04:35:00;21.23;94.84
71801;HTU21D;59647;55.838;37.292;2022-08-30T04:37:26;21.22;96.42
71801;HTU21D;59647;55.838;37.292;2022-08-30T04:39:56;21.28;97.29
71801;HTU21D;59647;55.838;37.292;2022-08-30T04:42:26;21.31;95.36
71801;HTU21D;59647;55.838;37.292;2022-08-30T04:44:54;21.39;95.17
71801;HTU21D;59647;55.838;37.292;2022-08-30T04:47:20;21.45;94.62
71801;HTU21D;59647;55.838;37.292;2022-08-30T04:49:46;21.55;94.02
71801;HTU21D;59647;55.838;37.292;2022-08-30T04:52:11;21.64;93.62
71801;HTU21D;59647;55.838;37.292;2022-08-30T04:54:37;21.72;93.27
71801;HTU21D;59647;55.838;37.292;2022-08-30T04:57:05;21.76;93.35
71801;HTU21D;59647;55.838;37.292;2022-08-30T04:59:31;21.79;92.87
71801;HTU21D;59647;55.838;37.292;2022-08-30T05:01:58;21.83;92.57
71801;HTU21D;59647;55.838;37.292;2022-08-30T05:04:24;21.85;92.41
71801;HTU21D;59647;55.838;37.292;2022-08-30T05:06:50;21.94;91.84
71801;HTU21D;59647;55.838;37.292;2022-08-30T05:09:17;21.95;93.78
71801;HTU21D;59647;55.838;37.292;2022-08-30T05:11:43;21.98;92.60
71801;HTU21D;59647;55.838;37.292;2022-08-30T05:14:10;22.03;92.80
71801;HTU21D;59647;55.838;37.292;2022-08-30T05:16:36;22.14;91.89
71801;HTU21D;59647;55.838;37.292;2022-08-30T05:19:02;22.26;91.82
71801;HTU21D;59647;55.838;37.292;2022-08-30T05:21:28;22.39;90.81
71801;HTU21D;59647;55.838;37.292;2022-08-30T05:23:56;22.50;90.86
71801;HTU21D;59647;55.838;37.292;2022-08-30T05:26:25;22.64;90.27
71801;HTU21D;59647;55.838;37.292;2022-08-30T05:28:52;22.77;89.89
71801;HTU21D;59647;55.838;37.292;2022-08-30T05:31:21;22.83;89.86
71801;HTU21D;59647;55.838;37.292;2022-08-30T05:33:50;22.82;89.44
71801;HTU21D;59647;55.838;37.292;2022-08-30T05:36:17;22.78;89.45
71801;HTU21D;59647;55.838;37.292;2022-08-30T05:38:44;22.72;89.91
71801;HTU21D;59647;55.838;37.292;2022-08-30T05:41:10;22.61;90.37
71801;HTU21D;59647;55.838;37.292;2022-08-30T05:43:37;22.67;89.66
71801;HTU21D;59647;55.838;37.292;2022-08-30T05:46:08;22.81;89.67
71801;HTU21D;59647;55.838;37.292;2022-08-30T05:48:35;22.88;89.11
71801;HTU21D;59647;55.838;37.292;2022-08-30T05:51:07;22.93;89.25
71801;HTU21D;59647;55.838;37.292;2022-08-30T05:53:34;23.11;88.67
71801;HTU21D;59647;55.838;37.292;2022-08-30T05:56:05;23.28;88.38
71801;HTU21D;59647;55.838;37.292;2022-08-30T05:58:31;23.45;87.55
71801;HTU21D;59647;55.838;37.292;2022-08-30T06:00:58;23.58;87.25
71801;HTU21D;59647;55.838;37.292;2022-08-30T06:03:24;23.76;86.76
71801;HTU21D;59647;55.838;37.292;2022-08-30T06:05:51;23.92;86.15
71801;HTU21D;59647;55.838;37.292;2022-08-30T06:08:19;24.01;85.62
71801;HTU21D;59647;55.838;37.292;2022-08-30T06:10:45;24.10;85.18
71801;HTU21D;59647;55.838;37.292;2022-08-30T06:13:12;24.29;85.08
71801;HTU21D;59647;55.838;37.292;2022-08-30T06:15:39;24.38;83.39
71801;HTU21D;59647;55.838;37.292;2022-08-30T06:18:08;24.43;83.07
71801;HTU21D;59647;55.838;37.292;2022-08-30T06:20:41;24.42;81.35
71801;HTU21D;59647;55.838;37.292;2022-08-30T06:23:08;24.48;82.83
71801;HTU21D;59647;55.838;37.292;2022-08-30T06:25:36;24.58;81.07
71801;HTU21D;59647;55.838;37.292;2022-08-30T06:28:03;24.66;80.22
71801;HTU21D;59647;55.838;37.292;2022-08-30T06:30:30;24.74;81.79
71801;HTU21D;59647;55.838;37.292;2022-08-30T06:32:56;24.92;78.13
71801;HTU21D;59647;55.838;37.292;2022-08-30T06:35:22;24.93;80.69
71801;HTU21D;59647;55.838;37.292;2022-08-30T06:37:49;25.00;80.54
71801;HTU21D;59647;55.838;37.292;2022-08-30T06:40:15;25.14;76.72
71801;HTU21D;59647;55.838;37.292;2022-08-30T06:42:43;25.31;78.03
71801;HTU21D;59647;55.838;37.292;2022-08-30T06:45:09;25.50;78.52
71801;HTU21D;59647;55.838;37.292;2022-08-30T06:47:35;25.64;78.21
71801;HTU21D;59647;55.838;37.292;2022-08-30T06:50:01;25.81;78.25
71801;HTU21D;59647;55.838;37.292;2022-08-30T06:52:29;26.04;78.19
71801;HTU21D;59647;55.838;37.292;2022-08-30T06:54:54;26.30;77.87
71801;HTU21D;59647;55.838;37.292;2022-08-30T06:57:22;26.45;75.75
71801;HTU21D;59647;55.838;37.292;2022-08-30T06:59:48;26.49;76.73
71801;HTU21D;59647;55.838;37.292;2022-08-30T07:02:14;26.57;75.97
71801;HTU21D;59647;55.838;37.292;2022-08-30T07:04:40;26.52;75.71
71801;HTU21D;59647;55.838;37.292;2022-08-30T07:07:09;26.49;75.23
71801;HTU21D;59647;55.838;37.292;2022-08-30T07:09:35;26.54;71.88
71801;HTU21D;59647;55.838;37.292;2022-08-30T07:12:02;26.66;74.25
71801;HTU21D;59647;55.838;37.292;2022-08-30T07:14:28;26.66;74.08
71801;HTU21D;59647;55.838;37.292;2022-08-30T07:16:54;26.77;74.22
71801;HTU21D;59647;55.838;37.292;2022-08-30T07:19:21;26.92;73.99
71801;HTU21D;59647;55.838;37.292;2022-08-30T07:21:47;27.02;73.39
71801;HTU21D;59647;55.838;37.292;2022-08-30T07:24:13;27.02;72.01
71801;HTU21D;59647;55.838;37.292;2022-08-30T07:26:41;27.00;72.54
71801;HTU21D;59647;55.838;37.292;2022-08-30T07:29:08;27.05;73.28
71801;HTU21D;59647;55.838;37.292;2022-08-30T07:31:34;27.24;73.18
71801;HTU21D;59647;55.838;37.292;2022-08-30T07:34:01;27.38;71.12
71801;HTU21D;59647;55.838;37.292;2022-08-30T07:36:28;27.57;72.36
71801;HTU21D;59647;55.838;37.292;2022-08-30T07:38:54;27.75;72.14
71801;HTU21D;59647;55.838;37.292;2022-08-30T07:41:24;27.94;70.88
71801;HTU21D;59647;55.838;37.292;2022-08-30T07:43:51;28.11;71.10
71801;HTU21D;59647;55.838;37.292;2022-08-30T07:46:17;28.30;70.50
71801;HTU21D;59647;55.838;37.292;2022-08-30T07:48:43;28.34;69.42
71801;HTU21D;59647;55.838;37.292;2022-08-30T07:51:11;28.38;67.72
71801;HTU21D;59647;55.838;37.292;2022-08-30T07:53:37;28.27;68.61
71801;HTU21D;59647;55.838;37.292;2022-08-30T07:56:03;28.29;68.95
71801;HTU21D;59647;55.838;37.292;2022-08-30T07:58:29;28.41;68.91
71801;HTU21D;59647;55.838;37.292;2022-08-30T08:00:55;28.46;63.46
71801;HTU21D;59647;55.838;37.292;2022-08-30T08:03:25;28.39;64.97
71801;HTU21D;59647;55.838;37.292;2022-08-30T08:05:51;28.38;67.32
71801;HTU21D;59647;55.838;37.292;2022-08-30T08:08:18;28.59;67.22
71801;HTU21D;59647;55.838;37.292;2022-08-30T08:10:44;28.75;66.21
71801;HTU21D;59647;55.838;37.292;2022-08-30T08:13:10;28.88;66.37
71801;HTU21D;59647;55.838;37.292;2022-08-30T08:15:37;28.73;60.39
71801;HTU21D;59647;55.838;37.292;2022-08-30T08:18:03;28.68;65.33
71801;HTU21D;59647;55.838;37.292;2022-08-30T08:20:30;28.78;64.59
71801;HTU21D;59647;55.838;37.292;2022-08-30T08:22:57;28.80;63.42
71801;HTU21D;59647;55.838;37.292;2022-08-30T08:25:23;28.78;64.66
71801;HTU21D;59647;55.838;37.292;2022-08-30T08:27:50;28.91;63.41
71801;HTU21D;59647;55.838;37.292;2022-08-30T08:30:18;29.08;63.72
71801;HTU21D;59647;55.838;37.292;2022-08-30T08:32:47;29.21;62.83
71801;HTU21D;59647;55.838;37.292;2022-08-30T08:35:14;29.34;63.26
71801;HTU21D;59647;55.838;37.292;2022-08-30T08:37:40;29.52;61.50
71801;HTU21D;59647;55.838;37.292;2022-08-30T08:40:08;29.62;61.60
71801;HTU21D;59647;55.838;37.292;2022-08-30T08:42:55;29.64;59.69
71801;HTU21D;59647;55.838;37.292;2022-08-30T08:45:41;29.68;58.13
71801;HTU21D;59647;55.838;37.292;2022-08-30T08:50:35;29.52;59.58
71801;HTU21D;59647;55.838;37.292;2022-08-30T08:53:11;29.71;59.40
71801;HTU21D;59647;55.838;37.292;2022-08-30T08:55:57;29.93;59.29
71801;HTU21D;59647;55.838;37.292;2022-08-30T08:58:27;30.16;60.03
71801;HTU21D;59647;55.838;37.292;2022-08-30T09:00:54;30.36;59.23
71801;HTU21D;59647;55.838;37.292;2022-08-30T09:03:22;30.47;58.80
71801;HTU21D;59647;55.838;37.292;2022-08-30T09:05:49;30.54;56.43
71801;HTU21D;59647;55.838;37.292;2022-08-30T09:08:17;30.54;55.99
71801;HTU21D;59647;55.838;37.292;2022-08-30T09:10:56;30.68;54.40
71801;HTU21D;59647;55.838;37.292;2022-08-30T09:13:24;30.74;52.72
71801;HTU21D;59647;55.838;37.292;2022-08-30T09:15:52;30.71;54.10
71801;HTU21D;59647;55.838;37.292;2022-08-30T09:18:18;30.99;55.37
71801;HTU21D;59647;55.838;37.292;2022-08-30T09:20:47;30.95;47.69
71801;HTU21D;59647;55.838;37.292;2022-08-30T09:23:23;31.08;53.13
71801;HTU21D;59647;55.838;37.292;2022-08-30T09:26:05;31.10;52.46
71801;HTU21D;59647;55.838;37.292;2022-08-30T09:28:34;31.24;52.18
71801;HTU21D;59647;55.838;37.292;2022-08-30T09:31:21;31.40;49.72
71801;HTU21D;59647;55.838;37.292;2022-08-30T09:33:59;31.44;50.53
71801;HTU21D;59647;55.838;37.292;2022-08-30T09:36:47;31.26;48.89
71801;HTU21D;59647;55.838;37.292;2022-08-30T09:39:27;31.40;40.58
71801;HTU21D;59647;55.838;37.292;2022-08-30T09:42:11;31.49;46.68
71801;HTU21D;59647;55.838;37.292;2022-08-30T09:44:37;31.63;48.34
71801;HTU21D;59647;55.838;37.292;2022-08-30T09:47:03;31.80;44.98
71801;HTU21D;59647;55.838;37.292;2022-08-30T09:52:11;32.27;48.11
71801;HTU21D;59647;55.838;37.292;2022-08-30T09:54:47;32.44;36.36
71801;HTU21D;59647;55.838;37.292;2022-08-30T09:57:31;32.45;46.05
71801;HTU21D;59647;55.838;37.292;2022-08-30T10:00:13;32.46;42.19
71801;HTU21D;59647;55.838;37.292;2022-08-30T10:02:48;32.38;41.87
71801;HTU21D;59647;55.838;37.292;2022-08-30T10:05:26;32.43;45.02
71801;HTU21D;59647;55.838;37.292;2022-08-30T10:08:28;32.42;41.05
71801;HTU21D;59647;55.838;37.292;2022-08-30T10:20:00;32.55;42.52
71801;HTU21D;59647;55.838;37.292;2022-08-30T10:22:39;32.20;43.18
71801;HTU21D;59647;55.838;37.292;2022-08-30T10:25:25;32.17;45.59
71801;HTU21D;59647;55.838;37.292;2022-08-30T10:27:57;32.15;44.90
71801;HTU21D;59647;55.838;37.292;2022-08-30T10:30:26;32.39;46.97
71801;HTU21D;59647;55.838;37.292;2022-08-30T10:33:17;32.73;45.41
71801;HTU21D;59647;55.838;37.292;2022-08-30T10:35:49;33.05;42.17
71801;HTU21D;59647;55.838;37.292;2022-08-30T10:38:22;32.93;39.49
71801;HTU21D;59647;55.838;37.292;2022-08-30T10:41:03;32.73;44.03
71801;HTU21D;59647;55.838;37.292;2022-08-30T10:47:13;32.19;43.55
71801;HTU21D;59647;55.838;37.292;2022-08-30T10:49:44;32.07;46.19
71801;HTU21D;59647;55.838;37.292;2022-08-30T10:57:28;31.33;45.67
71801;HTU21D;59647;55.838;37.292;2022-08-30T11:00:00;31.19;46.38
71801;HTU21D;59647;55.838;37.292;2022-08-30T11:10:57;31.28;46.07
71801;HTU21D;59647;55.838;37.292;2022-08-30T11:13:23;31.53;47.28
71801;HTU21D;59647;55.838;37.292;2022-08-30T11:16:06;31.89;44.83
71801;HTU21D;59647;55.838;37.292;2022-08-30T11:18:47;32.08;45.45
71801;HTU21D;59647;55.838;37.292;2022-08-30T11:21:35;32.15;40.10
71801;HTU21D;59647;55.838;37.292;2022-08-30T11:29:39;32.01;41.51
71801;HTU21D;59647;55.838;37.292;2022-08-30T11:40:07;31.63;44.42
71801;HTU21D;59647;55.838;37.292;2022-08-30T11:42:39;31.39;43.04
71801;HTU21D;59647;55.838;37.292;2022-08-30T11:47:55;31.48;40.01
71801;HTU21D;59647;55.838;37.292;2022-08-30T11:53:01;31.73;41.28
71801;HTU21D;59647;55.838;37.292;2022-08-30T11:58:40;32.12;38.66
71801;HTU21D;59647;55.838;37.292;2022-08-30T12:01:20;32.40;38.22
71801;HTU21D;59647;55.838;37.292;2022-08-30T12:07:07;32.77;38.80
71801;HTU21D;59647;55.838;37.292;2022-08-30T17:37:42;25.81;54.89
71801;HTU21D;59647;55.838;37.292;2022-08-30T17:40:08;25.78;55.61
71801;HTU21D;59647;55.838;37.292;2022-08-30T17:42:34;25.72;55.83
71801;HTU21D;59647;55.838;37.292;2022-08-30T17:45:03;25.64;56.46
71801;HTU21D;59647;55.838;37.292;2022-08-30T17:47:30;25.59;56.29
71801;HTU21D;59647;55.838;37.292;2022-08-30T17:49:55;25.52;56.75
71801;HTU21D;59647;55.838;37.292;2022-08-30T17:52:22;25.49;57.03
71801;HTU21D;59647;55.838;37.292;2022-08-30T17:54:48;25.37;57.78
71801;HTU21D;59647;55.838;37.292;2022-08-30T17:57:16;25.27;58.25
71801;HTU21D;59647;55.838;37.292;2022-08-30T17:59:43;25.18;58.63
71801;HTU21D;59647;55.838;37.292;2022-08-30T18:02:11;25.13;58.83
71801;HTU21D;59647;55.838;37.292;2022-08-30T18:04:38;25.10;58.95
71801;HTU21D;59647;55.838;37.292;2022-08-30T18:07:04;25.09;58.66
71801;HTU21D;59647;55.838;37.292;2022-08-30T18:09:30;25.07;59.05
71801;HTU21D;59647;55.838;37.292;2022-08-30T18:11:56;24.97;59.72
71801;HTU21D;59647;55.838;37.292;2022-08-30T18:14:22;24.92;59.92
71801;HTU21D;59647;55.838;37.292;2022-08-30T18:16:48;24.89;60.52
71801;HTU21D;59647;55.838;37.292;2022-08-30T18:19:15;24.86;59.61
71801;HTU21D;59647;55.838;37.292;2022-08-30T18:21:41;24.86;59.64
71801;HTU21D;59647;55.838;37.292;2022-08-30T18:24:07;24.84;59.99
71801;HTU21D;59647;55.838;37.292;2022-08-30T18:26:33;24.83;59.90
71801;HTU21D;59647;55.838;37.292;2022-08-30T18:29:00;24.82;60.96
71801;HTU21D;59647;55.838;37.292;2022-08-30T18:31:27;24.80;60.11
71801;HTU21D;59647;55.838;37.292;2022-08-30T18:33:52;24.80;59.80
71801;HTU21D;59647;55.838;37.292;2022-08-30T18:36:20;24.80;59.80
71801;HTU21D;59647;55.838;37.292;2022-08-30T18:38:46;24.78;59.59
71801;HTU21D;59647;55.838;37.292;2022-08-30T18:41:12;24.76;60.01
71801;HTU21D;59647;55.838;37.292;2022-08-30T18:43:39;24.75;59.84
71801;HTU21D;59647;55.838;37.292;2022-08-30T18:46:08;24.72;60.04
71801;HTU21D;59647;55.838;37.292;2022-08-30T18:48:35;24.68;59.94
71801;HTU21D;59647;55.838;37.292;2022-08-30T18:51:01;24.63;60.24
71801;HTU21D;59647;55.838;37.292;2022-08-30T18:53:27;24.56;60.48
71801;HTU21D;59647;55.838;37.292;2022-08-30T18:55:53;24.47;60.50
71801;HTU21D;59647;55.838;37.292;2022-08-30T18:58:19;24.38;61.15
71801;HTU21D;59647;55.838;37.292;2022-08-30T19:00:46;24.28;61.18
71801;HTU21D;59647;55.838;37.292;2022-08-30T19:03:12;24.24;61.18
71801;HTU21D;59647;55.838;37.292;2022-08-30T19:05:38;24.15;61.38
71801;HTU21D;59647;55.838;37.292;2022-08-30T19:08:05;24.03;61.85
71801;HTU21D;59647;55.838;37.292;2022-08-30T19:10:33;23.92;62.12
71801;HTU21D;59647;55.838;37.292;2022-08-30T19:12:59;23.85;62.55
71801;HTU21D;59647;55.838;37.292;2022-08-30T19:15:29;23.76;62.74
71801;HTU21D;59647;55.838;37.292;2022-08-30T19:17:56;23.72;62.81
71801;HTU21D;59647;55.838;37.292;2022-08-30T19:20:23;23.65;63.04
71801;HTU21D;59647;55.838;37.292;2022-08-30T19:22:50;23.60;63.29
71801;HTU21D;59647;55.838;37.292;2022-08-30T19:25:18;23.58;63.23
71801;HTU21D;59647;55.838;37.292;2022-08-30T19:27:44;23.58;63.07
71801;HTU21D;59647;55.838;37.292;2022-08-30T19:30:14;23.58;63.40
71801;HTU21D;59647;55.838;37.292;2022-08-30T19:32:40;23.55;63.32
71801;HTU21D;59647;55.838;37.292;2022-08-30T19:35:06;23.55;63.55
71801;HTU21D;59647;55.838;37.292;2022-08-30T19:37:33;23.55;63.99
71801;HTU21D;59647;55.838;37.292;2022-08-30T19:39:59;23.56;64.05
71801;HTU21D;59647;55.838;37.292;2022-08-30T19:42:25;23.57;64.98
71801;HTU21D;59647;55.838;37.292;2022-08-30T19:44:51;23.58;65.65
71801;HTU21D;59647;55.838;37.292;2022-08-30T19:47:18;23.57;70.12
71801;HTU21D;59647;55.838;37.292;2022-08-30T19:49:44;23.62;67.23
71801;HTU21D;59647;55.838;37.292;2022-08-30T19:52:10;23.64;69.74
71801;HTU21D;59647;55.838;37.292;2022-08-30T19:54:36;23.64;69.55
71801;HTU21D;59647;55.838;37.292;2022-08-30T19:57:02;23.61;68.17
71801;HTU21D;59647;55.838;37.292;2022-08-30T19:59:28;23.56;68.53
71801;HTU21D;59647;55.838;37.292;2022-08-30T20:01:54;23.50;68.54
71801;HTU21D;59647;55.838;37.292;2022-08-30T20:04:20;23.42;67.78
71801;HTU21D;59647;55.838;37.292;2022-08-30T20:06:46;23.38;67.76
71801;HTU21D;59647;55.838;37.292;2022-08-30T20:09:13;23.26;68.62
71801;HTU21D;59647;55.838;37.292;2022-08-30T20:11:40;23.18;68.36
71801;HTU21D;59647;55.838;37.292;2022-08-30T20:14:08;23.12;68.71
71801;HTU21D;59647;55.838;37.292;2022-08-30T20:16:35;23.08;70.84
71801;HTU21D;59647;55.838;37.292;2022-08-30T20:19:02;22.97;73.05
71801;HTU21D;59647;55.838;37.292;2022-08-30T20:21:28;22.88;70.05
71801;HTU21D;59647;55.838;37.292;2022-08-30T20:23:53;22.86;69.71
71801;HTU21D;59647;55.838;37.292;2022-08-30T20:26:19;22.88;69.19
71801;HTU21D;59647;55.838;37.292;2022-08-30T20:28:45;22.85;70.06
71801;HTU21D;59647;55.838;37.292;2022-08-30T20:31:11;22.82;69.63
71801;HTU21D;59647;55.838;37.292;2022-08-30T20:33:37;22.83;69.79
71801;HTU21D;59647;55.838;37.292;2022-08-30T20:36:04;22.83;71.13
71801;HTU21D;59647;55.838;37.292;2022-08-30T20:38:31;22.84;69.49
71801;HTU21D;59647;55.838;37.292;2022-08-30T20:40:57;22.86;69.23
71801;HTU21D;59647;55.838;37.292;2022-08-30T20:43:27;22.87;69.45
71801;HTU21D;59647;55.838;37.292;2022-08-30T20:45:54;22.88;68.56
71801;HTU21D;59647;55.838;37.292;2022-08-30T20:48:20;22.86;69.48
71801;HTU21D;59647;55.838;37.292;2022-08-30T20:50:47;22.84;68.96
71801;HTU21D;59647;55.838;37.292;2022-08-30T20:53:14;22.81;69.45
71801;HTU21D;59647;55.838;37.292;2022-08-30T20:55:41;22.79;69.53
71801;HTU21D;59647;55.838;37.292;2022-08-30T20:58:08;22.78;68.96
71801;HTU21D;59647;55.838;37.292;2022-08-30T21:00:34;22.77;69.10
71801;HTU21D;59647;55.838;37.292;2022-08-30T21:03:00;22.78;69.67
71801;HTU21D;59647;55.838;37.292;2022-08-30T21:05:26;22.78;69.16
71801;HTU21D;59647;55.838;37.292;2022-08-30T21:07:52;22.76;69.98
71801;HTU21D;59647;55.838;37.292;2022-08-30T21:10:18;22.69;71.84
71801;HTU21D;59647;55.838;37.292;2022-08-30T21:12:44;22.65;73.54
71801;HTU21D;59647;55.838;37.292;2022-08-30T21:15:10;22.56;75.11
71801;HTU21D;59647;55.838;37.292;2022-08-30T21:17:36;22.53;75.04
71801;HTU21D;59647;55.838;37.292;2022-08-30T21:20:03;22.47;80.70
71801;HTU21D;59647;55.838;37.292;2022-08-30T21:22:30;22.41;75.09
71801;HTU21D;59647;55.838;37.292;2022-08-30T21:24:56;22.42;74.67
71801;HTU21D;59647;55.838;37.292;2022-08-30T21:27:22;22.43;73.57
71801;HTU21D;59647;55.838;37.292;2022-08-30T21:29:48;22.43;79.65
71801;HTU21D;59647;55.838;37.292;2022-08-30T21:32:14;22.33;82.15
71801;HTU21D;59647;55.838;37.292;2022-08-30T21:34:40;22.28;79.80